Castillo Dmonterreal — 9HA2698 — position and weather

sailwx.info

Track history (hours):
 
Tides and Currents Weather Stations Pressure Air Temp Water Temp Dewpoint Dewpoint Depression Visibility Wind Speed Wind Dir Waves Ship Positions

Castillo Dmonterreal

Last reported at 2018-Feb-22 21:14 UTC. Time now 2018-Feb-23 08:47 UTC.
Position N 37°45' W 000°21'.

Length 182 m; draft 10.5 m.

Type: Tanker. MMSI: 215299000.

Date/timePositionNaut miles runAvg speedWind from/ knotsBaromVisibWave heightAir tempDewpointWater temp
2018-Feb-22 21:14N 37°45' W 000°21'313.4
2018-Feb-22 21:00N 37°42' W 000°23'713.4
2018-Feb-22 20:30N 37°37' W 000°28'713.2
2018-Feb-22 20:00N 37°32' W 000°33'712.9
2018-Feb-22 19:30N 37°28' W 000°39'612.6
2018-Feb-22 19:00N 37°23' W 000°45'712.4
2018-Feb-22 18:28N 37°19' W 000°51'21611.3
2018-Feb-21 23:24N 36°04' W 005°04'610.7
2018-Feb-21 22:53N 36°04' W 005°10'411.2
2018-Feb-21 22:30N 36°04' W 005°16'611.8
2018-Feb-21 22:00N 36°05' W 005°23'510.1
2018-Feb-21 21:30N 36°10' W 005°24'0 0.7
2018-Feb-21 21:00N 36°11' W 005°24'0 0.0
2018-Feb-21 20:26N 36°11' W 005°24'  
2018-Feb-17 14:31N 37°16' W 000°47'012.3
2018-Feb-17 14:28N 37°16' W 000°47'1812.2
2018-Feb-17 13:02N 37°26' W 000°29'111.9
2018-Feb-17 12:58N 37°27' W 000°28'511.8
2018-Feb-17 12:30N 37°29' W 000°22'10 2.7
2018-Feb-17 08:47N 37°38' W 000°16'413.1
2018-Feb-17 08:30N 37°38' W 000°21'613.0
2018-Feb-17 08:00N 37°38' W 000°29'4 8.8
2018-Feb-17 07:30N 37°43' W 000°27'23712.3
2018-Feb-16 12:20N 41°08' E 002°05'412.3
2018-Feb-16 12:00N 41°12' E 002°07'612.1
2018-Feb-16 11:30N 41°17' E 002°10'3 6.5
2018-Feb-16 11:00N 41°21' E 002°09'0 0.4
2018-Feb-16 10:30N 41°20' E 002°09'0 0.0
2018-Feb-16 10:00N 41°20' E 002°09'0 0.0
2018-Feb-15 19:36N 41°20' E 002°09'0 0.1
2018-Feb-15 19:31N 41°20' E 002°09'1 1.0
2018-Feb-15 19:00N 41°20' E 002°09'0 0.0
2018-Feb-15 18:07N 41°20' E 002°09'0 0.0
2018-Feb-15 17:47N 41°20' E 002°09'0 0.0
2018-Feb-15 17:30N 41°20' E 002°09'0 0.0
2018-Feb-14 21:28N 41°20' E 002°09'1 1.7
2018-Feb-14 20:59N 41°21' E 002°09'3 7.2
2018-Feb-14 20:30N 41°17' E 002°11'4 8.8
2018-Feb-14 20:00N 41°13' E 002°11'23912.6
2018-Feb-14 01:04N 37°44' W 000°22'113.2
2018-Feb-14 01:01N 37°44' W 000°22'713.2
2018-Feb-14 00:29N 37°38' W 000°27'613.2
2018-Feb-14 00:00N 37°33' W 000°31'1112.8
2018-Feb-13 23:08N 37°25' W 000°42'212.5
2018-Feb-13 23:00N 37°24' W 000°44'812.6
2018-Feb-13 22:19N 37°19' W 000°52'22512.4
2018-Feb-13 04:13N 36°04' W 005°16'313.5
2018-Feb-13 04:00N 36°04' W 005°20'7 9.2
2018-Feb-13 03:14N 36°10' W 005°24'0 0.9
2018-Feb-13 03:00N 36°11' W 005°24'0 0.0
2018-Feb-13 02:30N 36°11' W 005°24'  
Track history (hours):
 
Tides and Currents Weather Stations Pressure Air Temp Water Temp Dewpoint Dewpoint Depression Visibility Wind Speed Wind Dir Waves Ship Positions

Castillo Dmonterreal

Last reported at 2018-Feb-22 21:14 UTC. Time now 2018-Feb-23 08:47 UTC.
Position N 37°45' W 000°21'.

Length 182 m; draft 10.5 m.

Type: Tanker. MMSI: 215299000.

Date/timePositionNaut miles runAvg speedWind from/ knotsBaromVisibWave heightAir tempDewpointWater temp
2018-Feb-22 21:14N 37°45' W 000°21'313.4
2018-Feb-22 21:00N 37°42' W 000°23'713.4
2018-Feb-22 20:30N 37°37' W 000°28'713.2
2018-Feb-22 20:00N 37°32' W 000°33'712.9
2018-Feb-22 19:30N 37°28' W 000°39'612.6
2018-Feb-22 19:00N 37°23' W 000°45'712.4
2018-Feb-22 18:28N 37°19' W 000°51'21611.3
2018-Feb-21 23:24N 36°04' W 005°04'610.7
2018-Feb-21 22:53N 36°04' W 005°10'411.2
2018-Feb-21 22:30N 36°04' W 005°16'611.8
2018-Feb-21 22:00N 36°05' W 005°23'510.1
2018-Feb-21 21:30N 36°10' W 005°24'0 0.7
2018-Feb-21 21:00N 36°11' W 005°24'0 0.0
2018-Feb-21 20:26N 36°11' W 005°24'  
2018-Feb-17 14:31N 37°16' W 000°47'012.3
2018-Feb-17 14:28N 37°16' W 000°47'1812.2
2018-Feb-17 13:02N 37°26' W 000°29'111.9
2018-Feb-17 12:58N 37°27' W 000°28'511.8
2018-Feb-17 12:30N 37°29' W 000°22'10 2.7
2018-Feb-17 08:47N 37°38' W 000°16'413.1
2018-Feb-17 08:30N 37°38' W 000°21'613.0
2018-Feb-17 08:00N 37°38' W 000°29'4 8.8
2018-Feb-17 07:30N 37°43' W 000°27'23712.3
2018-Feb-16 12:20N 41°08' E 002°05'412.3
2018-Feb-16 12:00N 41°12' E 002°07'612.1
2018-Feb-16 11:30N 41°17' E 002°10'3 6.5
2018-Feb-16 11:00N 41°21' E 002°09'0 0.4
2018-Feb-16 10:30N 41°20' E 002°09'0 0.0
2018-Feb-16 10:00N 41°20' E 002°09'0 0.0
2018-Feb-15 19:36N 41°20' E 002°09'0 0.1
2018-Feb-15 19:31N 41°20' E 002°09'1 1.0
2018-Feb-15 19:00N 41°20' E 002°09'0 0.0
2018-Feb-15 18:07N 41°20' E 002°09'0 0.0
2018-Feb-15 17:47N 41°20' E 002°09'0 0.0
2018-Feb-15 17:30N 41°20' E 002°09'0 0.0
2018-Feb-14 21:28N 41°20' E 002°09'1 1.7
2018-Feb-14 20:59N 41°21' E 002°09'3 7.2
2018-Feb-14 20:30N 41°17' E 002°11'4 8.8
2018-Feb-14 20:00N 41°13' E 002°11'23912.6
2018-Feb-14 01:04N 37°44' W 000°22'113.2
2018-Feb-14 01:01N 37°44' W 000°22'713.2
2018-Feb-14 00:29N 37°38' W 000°27'613.2
2018-Feb-14 00:00N 37°33' W 000°31'1112.8
2018-Feb-13 23:08N 37°25' W 000°42'212.5
2018-Feb-13 23:00N 37°24' W 000°44'812.6
2018-Feb-13 22:19N 37°19' W 000°52'22512.4
2018-Feb-13 04:13N 36°04' W 005°16'313.5
2018-Feb-13 04:00N 36°04' W 005°20'7 9.2
2018-Feb-13 03:14N 36°10' W 005°24'0 0.9
2018-Feb-13 03:00N 36°11' W 005°24'0 0.0
2018-Feb-13 02:30N 36°11' W 005°24'  

Dump ship's entire track history